createdAt,value
2018-04-01T00:01:58.688Z,4.50
2018-04-01T00:04:25.676Z,4.40
2018-04-01T00:06:52.650Z,4.40
2018-04-01T00:09:19.653Z,4.40
2018-04-01T00:11:46.634Z,4.30
2018-04-01T00:14:13.742Z,4.20
2018-04-01T00:16:40.750Z,4.10
2018-04-01T00:19:07.766Z,3.90
2018-04-01T00:21:35.514Z,3.90
2018-04-01T00:24:02.494Z,3.80
2018-04-01T00:26:30.518Z,4.10
2018-04-01T00:28:57.513Z,4.00
2018-04-01T00:31:24.519Z,4.10
2018-04-01T00:33:51.501Z,4.10
2018-04-01T00:36:18.497Z,4.10
2018-04-01T00:38:45.526Z,4.20
2018-04-01T00:41:12.514Z,4.20
2018-04-01T00:43:40.296Z,4.30
2018-04-01T00:46:07.286Z,4.30
2018-04-01T00:48:34.271Z,4.40
2018-04-01T00:51:02.038Z,4.40
2018-04-01T00:53:29.031Z,4.30
2018-04-01T00:55:56.047Z,4.50
2018-04-01T00:58:23.026Z,4.50
2018-04-01T01:00:50.040Z,4.50
2018-04-01T01:03:17.043Z,4.60
2018-04-01T01:05:44.023Z,4.60
2018-04-01T01:08:11.034Z,4.50
2018-04-01T01:10:38.793Z,4.50
2018-04-01T01:13:05.777Z,4.50
2018-04-01T01:15:32.780Z,4.60
2018-04-01T01:18:00.590Z,4.70
2018-04-01T01:20:28.330Z,4.70
2018-04-01T01:22:55.314Z,4.70
2018-04-01T01:25:22.294Z,4.80
2018-04-01T01:27:49.306Z,4.90
2018-04-01T01:30:16.290Z,5.00
2018-04-01T01:32:43.307Z,5.10
2018-04-01T01:35:10.315Z,5.10
2018-04-01T01:37:37.292Z,5.20
2018-04-01T01:40:04.290Z,5.20
2018-04-01T01:42:31.283Z,5.30
2018-04-01T01:44:58.864Z,5.30
2018-04-01T01:47:25.842Z,5.30
2018-04-01T01:49:52.822Z,5.30
2018-04-01T01:52:19.819Z,5.30
2018-04-01T01:54:47.562Z,5.40
2018-04-01T01:57:15.602Z,5.40
2018-04-01T01:59:42.578Z,5.40
2018-04-01T02:02:09.667Z,5.40
2018-04-01T02:04:36.662Z,5.50
2018-04-01T02:07:03.650Z,5.50
2018-04-01T02:09:30.654Z,5.50
2018-04-01T02:11:57.633Z,5.50
2018-04-01T02:14:24.691Z,5.60
2018-04-01T02:16:51.691Z,5.60
2018-04-01T02:19:18.673Z,5.50
2018-04-01T02:21:45.672Z,5.50
2018-04-01T02:24:12.657Z,5.60
2018-04-01T02:26:39.654Z,5.60
2018-04-01T02:29:06.633Z,5.60
2018-04-01T02:31:34.486Z,5.50
2018-04-01T02:34:01.429Z,5.50
2018-04-01T02:36:29.175Z,5.40
2018-04-01T02:38:56.194Z,5.30
2018-04-01T02:41:23.193Z,5.30
2018-04-01T02:43:50.957Z,5.30
2018-04-01T02:46:18.712Z,5.30
2018-04-01T02:48:46.464Z,5.30
2018-04-01T02:51:14.223Z,5.20
2018-04-01T02:53:41.205Z,5.20
2018-04-01T02:56:08.203Z,5.30
2018-04-01T02:58:35.192Z,5.20
2018-04-01T03:01:02.213Z,5.10
2018-04-01T03:03:29.959Z,5.10
2018-04-01T03:05:56.951Z,5.10
2018-04-01T03:08:23.954Z,5.10
2018-04-01T03:10:50.938Z,5.00
2018-04-01T03:13:17.939Z,5.10
2018-04-01T03:15:44.919Z,5.00
2018-04-01T03:18:11.930Z,5.00
2018-04-01T03:20:38.962Z,4.90
2018-04-01T03:23:05.946Z,4.90
2018-04-01T03:25:33.715Z,4.90
2018-04-01T03:28:00.690Z,4.90
2018-04-01T03:30:27.683Z,4.90
2018-04-01T03:32:55.429Z,4.80
2018-04-01T03:35:22.439Z,4.80
2018-04-01T03:37:49.427Z,4.90
2018-04-01T03:40:16.410Z,4.90
2018-04-01T03:42:43.467Z,4.90
2018-04-01T03:45:10.446Z,5.00
2018-04-01T03:47:37.442Z,5.10
2018-04-01T03:50:04.420Z,5.10
2018-04-01T03:52:31.434Z,5.20
2018-04-01T03:54:58.489Z,5.20
2018-04-01T03:57:25.462Z,5.30
2018-04-01T03:59:52.464Z,5.30
2018-04-01T04:02:19.458Z,5.30
2018-04-01T04:04:46.434Z,5.30
2018-04-01T04:07:14.178Z,5.30
2018-04-01T04:09:41.170Z,5.30
2018-04-01T04:12:08.150Z,5.30
2018-04-01T04:14:36.666Z,5.30
2018-04-01T04:17:04.408Z,5.30
2018-04-01T04:19:32.408Z,5.30
2018-04-01T04:22:00.255Z,5.30
2018-04-01T04:24:27.673Z,5.30
2018-04-01T04:26:56.426Z,5.30
2018-04-01T04:29:23.419Z,5.30
2018-04-01T04:31:50.398Z,5.30
2018-04-01T04:34:18.169Z,5.40
2018-04-01T04:36:45.150Z,5.30
2018-04-01T04:39:12.130Z,5.30
2018-04-01T04:41:40.632Z,5.30
2018-04-01T04:44:08.854Z,5.30
2018-04-01T04:46:35.851Z,5.40
2018-04-01T04:49:02.837Z,5.40
2018-04-01T04:51:29.831Z,5.40
2018-04-01T04:53:57.574Z,5.40
2018-04-01T04:56:24.601Z,5.40
2018-04-01T04:58:51.563Z,5.40
2018-04-01T05:01:18.664Z,5.40
2018-04-01T05:03:45.643Z,5.40
2018-04-01T05:06:12.622Z,5.40
2018-04-01T05:08:40.398Z,5.40
2018-04-01T05:11:07.377Z,5.40
2018-04-01T05:13:34.374Z,5.40
2018-04-01T05:16:02.126Z,5.40
2018-04-01T05:18:29.159Z,5.40
2018-04-01T05:20:56.134Z,5.40
2018-04-01T05:23:23.138Z,5.40
2018-04-01T05:25:50.114Z,5.40
2018-04-01T05:28:17.947Z,5.40
2018-04-01T05:30:44.878Z,5.40
2018-04-01T05:33:12.208Z,5.40
2018-04-01T05:35:39.202Z,5.40
2018-04-01T05:38:06.178Z,5.40
2018-04-01T05:40:33.177Z,5.40
2018-04-01T05:43:00.170Z,5.40
2018-04-01T05:45:27.166Z,5.50
2018-04-01T05:47:54.150Z,5.40
2018-04-01T05:50:21.150Z,5.40
2018-04-01T05:52:48.134Z,5.40
2018-04-01T05:55:15.898Z,5.30
2018-04-01T05:57:43.643Z,5.20
2018-04-01T06:00:11.390Z,5.20
2018-04-01T06:02:38.495Z,5.20
2018-04-01T06:05:05.478Z,5.20
2018-04-01T06:07:32.482Z,5.10
2018-04-01T06:09:59.465Z,5.10
2018-04-01T06:12:26.478Z,5.10
2018-04-01T06:14:53.520Z,5.00
2018-04-01T06:17:20.506Z,5.00
2018-04-01T06:19:47.498Z,5.00
2018-04-01T06:22:14.482Z,4.90
2018-04-01T06:24:41.486Z,5.00
2018-04-01T06:27:08.482Z,5.00
2018-04-01T06:29:35.504Z,4.90
2018-04-01T06:32:02.551Z,4.90
2018-04-01T06:34:29.541Z,4.80
2018-04-01T06:36:56.534Z,4.90
2018-04-01T06:39:23.654Z,4.90
2018-04-01T06:41:50.633Z,4.90
2018-04-01T06:44:17.639Z,5.00
2018-04-01T06:46:44.619Z,5.10
2018-04-01T06:49:12.399Z,5.20
2018-04-01T06:51:39.497Z,5.20
2018-04-01T06:54:07.258Z,5.40
2018-04-01T06:56:35.006Z,5.40
2018-04-01T06:59:02.008Z,5.40
2018-04-01T07:01:29.022Z,5.30
2018-04-01T07:03:56.014Z,5.30
2018-04-01T07:06:23.000Z,5.40
2018-04-01T07:08:50.026Z,5.40
2018-04-01T07:11:17.007Z,5.40
2018-04-01T07:13:44.773Z,5.90
2018-04-01T07:16:12.515Z,5.90
2018-04-01T07:18:39.498Z,5.90
2018-04-01T07:21:06.494Z,6.10
2018-04-01T07:23:33.470Z,6.10
2018-04-01T07:26:01.234Z,6.60
2018-04-01T07:28:28.975Z,6.80
2018-04-01T07:30:55.974Z,6.80
2018-04-01T07:33:22.954Z,6.90
2018-04-01T07:35:49.951Z,6.70
2018-04-01T07:38:16.930Z,6.60
2018-04-01T07:40:43.943Z,6.60
2018-04-01T07:43:11.311Z,6.60
2018-04-01T07:45:38.286Z,6.60
2018-04-01T07:48:05.291Z,6.30
2018-04-01T07:50:32.270Z,6.30
2018-04-01T07:52:59.695Z,6.40
2018-04-01T07:55:26.698Z,6.40
2018-04-01T07:57:54.464Z,6.50
2018-04-01T08:00:22.213Z,6.40
2018-04-01T08:02:49.214Z,6.30
2018-04-01T08:05:16.194Z,6.30
2018-04-01T08:07:43.192Z,6.40
2018-04-01T08:10:10.690Z,6.50
2018-04-01T08:12:37.667Z,6.60
2018-04-01T08:15:05.430Z,7.10
2018-04-01T08:17:33.202Z,7.10
2018-04-01T08:20:00.198Z,7.10
2018-04-01T08:22:27.182Z,7.40
2018-04-01T08:24:54.204Z,7.50
2018-04-01T08:27:21.964Z,7.80
2018-04-01T08:29:48.959Z,7.80
2018-04-01T08:32:15.941Z,7.90
2018-04-01T08:34:42.938Z,8.00
2018-04-01T08:37:09.914Z,8.20
2018-04-01T08:39:36.910Z,8.70
2018-04-01T08:42:04.654Z,9.20
2018-04-01T08:44:31.674Z,9.20
2018-04-01T08:46:58.658Z,8.50
2018-04-01T08:49:25.634Z,8.80
2018-04-01T08:51:52.626Z,8.70
2018-04-01T08:54:19.606Z,8.40
2018-04-01T08:56:47.415Z,9.50
2018-04-01T08:59:14.444Z,9.50
2018-04-01T09:01:41.438Z,9.70
2018-04-01T09:04:08.419Z,9.60
2018-04-01T09:06:35.410Z,9.30
2018-04-01T09:09:02.396Z,9.00
2018-04-01T09:11:30.292Z,8.80
2018-04-01T09:13:57.270Z,8.70
2018-04-01T09:16:24.582Z,9.10
2018-04-01T09:18:51.562Z,9.00
2018-04-01T09:21:18.546Z,9.10
2018-04-01T09:23:46.306Z,8.30
2018-04-01T09:26:14.066Z,7.90
2018-04-01T09:28:41.834Z,7.50
2018-04-01T09:31:09.586Z,7.50
2018-04-01T09:33:37.366Z,7.50
2018-04-01T09:36:04.346Z,7.50
2018-04-01T09:38:31.339Z,7.50
2018-04-01T09:40:58.354Z,7.60
2018-04-01T09:43:25.351Z,8.00
2018-04-01T09:45:52.328Z,8.20
2018-04-01T09:48:19.334Z,8.20
2018-04-01T09:50:47.087Z,8.20
2018-04-01T09:53:14.834Z,8.30
2018-04-01T09:55:42.602Z,8.60
2018-04-01T09:58:10.362Z,9.00
2018-04-01T10:00:58.583Z,9.00
2018-04-01T10:03:26.065Z,8.70
2018-04-01T10:05:53.562Z,8.30
2018-04-01T10:08:21.041Z,8.10
2018-04-01T10:10:48.577Z,8.50
2018-04-01T10:13:16.094Z,8.90
2018-04-01T10:15:44.342Z,8.60
2018-04-01T10:18:11.864Z,8.60
2018-04-01T10:20:39.350Z,8.40
2018-04-01T10:23:06.822Z,8.40
2018-04-01T10:25:34.333Z,8.20
2018-04-01T10:28:01.819Z,8.10
2018-04-01T10:30:29.286Z,8.10
2018-04-01T10:32:56.774Z,8.50
2018-04-01T10:35:25.011Z,8.90
2018-04-01T10:37:52.496Z,8.90
2018-04-01T10:40:19.998Z,8.60
2018-04-01T10:42:47.487Z,8.60
2018-04-01T10:45:14.954Z,8.70
2018-04-01T10:47:42.450Z,8.70
2018-04-01T10:50:09.919Z,8.50
2018-04-01T10:52:37.402Z,8.20
2018-04-01T10:55:04.451Z,8.00
2018-04-01T10:57:32.162Z,8.00
2018-04-01T10:59:59.906Z,8.10
2018-04-01T11:02:27.958Z,7.90
2018-04-01T11:04:54.941Z,7.90
2018-04-01T11:07:21.926Z,7.80
2018-04-01T11:09:48.922Z,7.80
2018-04-01T11:12:16.670Z,7.50
2018-04-01T11:14:44.478Z,7.60
2018-04-01T11:17:11.459Z,7.50
2018-04-01T11:19:38.466Z,7.60
2018-04-01T11:22:05.451Z,7.60
2018-04-01T11:24:32.441Z,7.50
2018-04-01T11:26:59.453Z,7.50
2018-04-01T11:29:26.435Z,7.50
2018-04-01T11:31:53.783Z,7.50
2018-04-01T11:34:20.786Z,7.40
2018-04-01T11:36:47.766Z,7.40
2018-04-01T11:39:14.776Z,7.40
2018-04-01T11:41:42.563Z,7.50
2018-04-01T11:44:09.573Z,7.50
2018-04-01T11:46:37.314Z,7.50
2018-04-01T11:49:04.295Z,7.50
2018-04-01T11:51:32.063Z,7.60
2018-04-01T11:53:59.055Z,7.50
2018-04-01T11:56:26.052Z,7.70
2018-04-01T11:58:53.029Z,7.60
2018-04-01T12:01:23.275Z,7.60
2018-04-01T12:03:51.069Z,8.10
2018-04-01T12:06:18.146Z,8.10
2018-04-01T12:08:45.669Z,8.20
2018-04-01T12:11:12.791Z,8.50
2018-04-01T12:13:40.124Z,8.70
2018-04-01T12:16:07.151Z,8.70
2018-04-01T12:18:34.145Z,8.60
2018-04-01T12:21:01.142Z,8.40
2018-04-01T12:23:28.118Z,8.10
2018-04-01T12:25:55.102Z,7.70
2018-04-01T12:28:22.095Z,7.60
2018-04-01T12:30:49.087Z,7.60
2018-04-01T12:33:16.849Z,8.10
2018-04-01T12:35:44.598Z,8.50
2018-04-01T12:38:11.594Z,8.50
2018-04-01T12:40:38.578Z,8.70
2018-04-01T12:43:05.575Z,9.00
2018-04-01T12:45:32.556Z,9.40
2018-04-01T12:48:00.355Z,9.70
2018-04-01T12:50:27.347Z,9.70
2018-04-01T12:52:54.346Z,9.60
2018-04-01T12:55:21.321Z,9.30
2018-04-01T12:57:48.358Z,8.90
2018-04-01T13:00:15.347Z,8.70
2018-04-01T13:02:43.086Z,8.40
2018-04-01T13:05:10.111Z,8.40
2018-04-01T13:07:37.095Z,8.40
2018-04-01T13:10:04.853Z,8.60
2018-04-01T13:12:31.839Z,8.60
2018-04-01T13:14:58.838Z,8.70
2018-04-01T13:17:25.818Z,8.90
2018-04-01T13:19:52.827Z,9.00
2018-04-01T13:22:19.819Z,8.90
2018-04-01T13:24:46.866Z,8.70
2018-04-01T13:27:13.838Z,8.50
2018-04-01T13:29:40.842Z,8.30
2018-04-01T13:32:07.831Z,8.30
2018-04-01T13:34:34.834Z,8.40
2018-04-01T13:37:01.814Z,8.40
2018-04-01T13:39:28.814Z,8.40
2018-04-01T13:41:56.587Z,8.40
2018-04-01T13:44:24.340Z,8.40
2018-04-01T13:46:52.085Z,8.50
2018-04-01T13:49:19.839Z,8.40
2018-04-01T13:51:46.842Z,8.40
2018-04-01T13:54:13.847Z,8.40
2018-04-01T13:56:41.607Z,8.10
2018-04-01T13:59:09.357Z,8.00
2018-04-01T14:01:36.355Z,8.00
2018-04-01T14:04:03.965Z,7.90
2018-04-01T14:06:31.138Z,8.50
2018-04-01T14:08:58.122Z,8.50
2018-04-01T14:11:25.123Z,8.50
2018-04-01T14:13:52.102Z,8.50
2018-04-01T14:16:19.406Z,8.60
2018-04-01T14:18:47.158Z,8.50
2018-04-01T14:21:14.910Z,8.50
2018-04-01T14:23:41.906Z,8.50
2018-04-01T14:26:08.903Z,8.40
2018-04-01T14:28:35.902Z,8.00
2018-04-01T14:31:02.878Z,7.50
2018-04-01T14:33:29.887Z,7.20
2018-04-01T14:35:56.871Z,7.10
2018-04-01T14:38:23.886Z,7.20
2018-04-01T14:40:50.864Z,7.20
2018-04-01T14:43:17.905Z,7.10
2018-04-01T14:45:44.849Z,7.20
2018-04-01T14:48:11.850Z,7.40
2018-04-01T14:50:38.846Z,7.60
2018-04-01T14:53:06.455Z,7.60
2018-04-01T14:55:33.453Z,7.60
2018-04-01T14:58:00.429Z,7.80
2018-04-01T15:00:27.430Z,8.10
2018-04-01T15:02:54.417Z,7.90
2018-04-01T15:05:21.415Z,7.60
2018-04-01T15:07:48.395Z,7.50
2018-04-01T15:10:16.162Z,7.40
2018-04-01T15:12:43.929Z,7.40
2018-04-01T15:15:11.690Z,7.40
2018-04-01T15:17:39.434Z,7.20
2018-04-01T15:20:07.345Z,7.20
2018-04-01T15:22:34.330Z,7.30
2018-04-01T15:25:01.317Z,7.40
2018-04-01T15:27:28.311Z,7.40
2018-04-01T15:29:55.295Z,7.30
2018-04-01T15:32:23.054Z,7.10
2018-04-01T15:34:50.795Z,7.00
2018-04-01T15:37:19.322Z,6.90
2018-04-01T15:39:46.314Z,6.90
2018-04-01T15:42:13.307Z,6.90
2018-04-01T15:44:40.305Z,6.90
2018-04-01T15:47:08.840Z,6.90
2018-04-01T15:49:35.822Z,6.90
2018-04-01T15:52:02.840Z,6.90
2018-04-01T15:54:29.875Z,6.90
2018-04-01T15:56:56.870Z,6.90
2018-04-01T15:59:23.849Z,6.90
2018-04-01T16:01:50.847Z,6.80
2018-04-01T16:04:18.271Z,6.70
2018-04-01T16:06:45.282Z,6.70
2018-04-01T16:09:13.022Z,6.60
2018-04-01T16:11:41.515Z,6.60
2018-04-01T16:14:09.283Z,6.50
2018-04-01T16:16:37.031Z,6.50
2018-04-01T16:19:04.060Z,6.50
2018-04-01T16:21:31.046Z,6.50
2018-04-01T16:23:58.810Z,6.30
2018-04-01T16:26:25.790Z,6.30
2018-04-01T16:28:52.791Z,6.30
2018-04-01T16:31:20.534Z,6.20
2018-04-01T16:33:47.530Z,6.20
2018-04-01T16:36:14.534Z,6.20
2018-04-01T16:38:42.306Z,6.30
2018-04-01T16:41:10.342Z,6.20
2018-04-01T16:43:37.333Z,6.20
2018-04-01T16:46:04.326Z,6.20
2018-04-01T16:48:31.318Z,6.20
2018-04-01T16:50:58.307Z,6.20
2018-04-01T16:53:25.306Z,6.20
2018-04-01T16:55:52.290Z,6.20
2018-04-01T16:58:19.289Z,6.10
2018-04-01T17:00:47.038Z,6.10
2018-04-01T17:03:14.802Z,6.00
2018-04-01T17:05:42.547Z,6.00
2018-04-01T17:08:09.545Z,6.00
2018-04-01T17:10:36.526Z,6.00
2018-04-01T17:13:03.507Z,5.90
2018-04-01T17:15:31.282Z,6.00
2018-04-01T17:17:58.262Z,5.90
2018-04-01T17:20:26.795Z,6.00
2018-04-01T17:22:54.544Z,5.90
2018-04-01T17:25:21.551Z,5.90
2018-04-01T17:27:48.534Z,6.00
2018-04-01T17:30:15.548Z,6.00
2018-04-01T17:32:42.542Z,5.90
2018-04-01T17:35:09.547Z,5.90
2018-04-01T17:37:36.596Z,6.00
2018-04-01T17:40:03.583Z,6.00
2018-04-01T17:42:30.599Z,6.00
2018-04-01T17:44:57.595Z,5.90
2018-04-01T17:47:24.602Z,5.90
2018-04-01T17:49:51.590Z,5.80
2018-04-01T17:52:19.412Z,5.70
2018-04-01T17:54:46.362Z,5.70
2018-04-01T17:57:13.358Z,5.70
2018-04-01T17:59:41.128Z,5.70
2018-04-01T18:02:08.897Z,5.70
2018-04-01T18:04:35.895Z,5.70
2018-04-01T18:07:02.929Z,5.70
2018-04-01T18:09:29.940Z,5.70
2018-04-01T18:11:56.942Z,5.60
2018-04-01T18:14:23.937Z,5.60
2018-04-01T18:16:51.872Z,5.60
2018-04-01T18:19:18.896Z,5.60
2018-04-01T18:21:45.874Z,5.60
2018-04-01T18:24:12.878Z,5.50
2018-04-01T18:26:39.876Z,5.50
2018-04-01T18:29:06.898Z,5.50
2018-04-01T18:31:33.888Z,5.50
2018-04-01T18:34:01.100Z,5.50
2018-04-01T18:36:28.100Z,5.60
2018-04-01T18:38:55.867Z,5.50
2018-04-01T18:41:22.866Z,5.50
2018-04-01T18:43:49.847Z,5.50
2018-04-01T18:46:16.846Z,5.50
2018-04-01T18:48:43.907Z,5.60
2018-04-01T18:51:10.873Z,5.60
2018-04-01T18:53:37.875Z,5.60
2018-04-01T18:56:04.880Z,5.50
2018-04-01T18:58:31.906Z,5.40
2018-04-01T19:00:58.908Z,5.50
2018-04-01T19:03:25.906Z,5.50
2018-04-01T19:05:52.926Z,5.50
2018-04-01T19:08:20.818Z,5.50
2018-04-01T19:10:47.822Z,5.40
2018-04-01T19:13:14.813Z,5.50
2018-04-01T19:15:42.594Z,5.60
2018-04-01T19:18:10.896Z,5.60
2018-04-01T19:20:38.390Z,5.60
2018-04-01T19:23:05.873Z,5.60
2018-04-01T19:25:34.273Z,5.60
2018-04-01T19:28:01.941Z,5.50
2018-04-01T19:30:31.022Z,5.50
2018-04-01T19:32:58.514Z,5.50
2018-04-01T19:35:26.010Z,5.50
2018-04-01T19:37:54.266Z,5.40
2018-04-01T19:40:21.812Z,5.40
2018-04-01T19:42:49.278Z,5.40
2018-04-01T19:45:16.780Z,5.40
2018-04-01T19:47:44.279Z,5.40
2018-04-01T19:50:11.754Z,5.40
2018-04-01T19:52:39.290Z,5.40
2018-04-01T19:55:06.782Z,5.40
2018-04-01T19:57:34.345Z,5.30
2018-04-01T20:00:02.592Z,5.40
2018-04-01T20:02:30.082Z,5.40
2018-04-01T20:04:57.570Z,5.40
2018-04-01T20:07:25.062Z,5.30
2018-04-01T20:09:53.298Z,5.30
2018-04-01T20:12:20.782Z,5.30
2018-04-01T20:14:48.250Z,5.30
2018-04-01T20:17:16.537Z,5.30
2018-04-01T20:19:44.030Z,5.30
2018-04-01T20:22:11.541Z,5.40
2018-04-01T20:24:39.795Z,5.30
2018-04-01T20:27:07.278Z,5.30
2018-04-01T20:29:34.853Z,5.30
2018-04-01T20:32:02.350Z,5.20
2018-04-01T20:34:29.855Z,5.20
2018-04-01T20:36:57.321Z,5.20
2018-04-01T20:39:24.806Z,5.10
2018-04-01T20:41:52.706Z,5.20
2018-04-01T20:44:20.964Z,5.20
2018-04-01T20:46:48.439Z,5.20
2018-04-01T20:49:16.752Z,5.20
2018-04-01T20:51:44.231Z,5.20
2018-04-01T20:54:11.742Z,5.20
2018-04-01T20:56:39.974Z,5.10
2018-04-01T20:59:07.463Z,5.10
2018-04-01T21:01:35.770Z,5.00
2018-04-01T21:04:03.258Z,5.00
2018-04-01T21:06:30.782Z,5.00
2018-04-01T21:08:58.266Z,4.90
2018-04-01T21:11:25.807Z,4.90
2018-04-01T21:13:53.775Z,4.80
2018-04-01T21:16:21.246Z,4.80
2018-04-01T21:18:48.734Z,4.80
2018-04-01T21:21:16.207Z,4.60
2018-04-01T21:23:43.700Z,4.50
2018-04-01T21:26:11.178Z,4.50
2018-04-01T21:28:38.666Z,4.50
2018-04-01T21:31:06.147Z,4.50
2018-04-01T21:33:34.394Z,4.40
2018-04-01T21:36:01.872Z,4.40
2018-04-01T21:38:30.183Z,4.30
2018-04-01T21:40:57.652Z,4.30
2018-04-01T21:43:25.142Z,4.30
2018-04-01T21:45:52.614Z,4.30
2018-04-01T21:48:20.866Z,4.10
2018-04-01T21:50:48.354Z,4.10
2018-04-01T21:53:16.592Z,4.00
2018-04-01T21:55:44.078Z,4.00
2018-04-01T21:58:12.318Z,3.90
2018-04-01T22:00:39.818Z,3.90
2018-04-01T22:03:08.050Z,3.90
2018-04-01T22:05:35.546Z,3.90
2018-04-01T22:08:03.778Z,3.70
2018-04-01T22:10:31.270Z,3.70
2018-04-01T22:12:59.506Z,4.00
2018-04-01T22:15:27.002Z,4.00
2018-04-01T22:17:55.252Z,4.00
2018-04-01T22:20:22.726Z,4.10
2018-04-01T22:23:02.807Z,4.10
2018-04-01T22:25:30.274Z,4.10
2018-04-01T22:27:57.762Z,4.10
2018-04-01T22:30:25.234Z,4.00
2018-04-01T22:32:52.735Z,3.80
2018-04-01T22:35:20.218Z,3.80
2018-04-01T22:37:47.708Z,3.80
2018-04-01T22:40:15.174Z,3.70
2018-04-01T22:42:43.422Z,3.50
2018-04-01T22:45:10.895Z,3.50
2018-04-01T22:47:39.146Z,3.50
2018-04-01T22:50:06.634Z,3.50
2018-04-01T22:52:34.917Z,3.80
2018-04-01T22:55:02.396Z,3.80
2018-04-01T22:57:29.866Z,3.80
2018-04-01T22:59:57.362Z,3.90
2018-04-01T23:02:24.834Z,4.00
2018-04-01T23:04:53.082Z,4.10
2018-04-01T23:07:20.558Z,4.00
2018-04-01T23:09:48.812Z,4.00
2018-04-01T23:12:16.307Z,4.00
2018-04-01T23:14:43.812Z,3.90
2018-04-01T23:17:11.290Z,3.90
2018-04-01T23:19:38.778Z,3.90
2018-04-01T23:22:06.253Z,3.90
2018-04-01T23:24:33.998Z,3.80
2018-04-01T23:27:01.475Z,3.70
2018-04-01T23:29:28.945Z,3.60
2018-04-01T23:31:56.439Z,3.50
2018-04-01T23:34:24.683Z,3.40
2018-04-01T23:36:52.170Z,3.40
2018-04-01T23:39:20.407Z,3.30
2018-04-01T23:41:47.894Z,3.30
2018-04-01T23:44:15.371Z,3.20
2018-04-01T23:46:43.622Z,3.30
2018-04-01T23:49:11.102Z,3.20
2018-04-01T23:51:38.598Z,3.30
2018-04-01T23:54:06.141Z,3.40
2018-04-01T23:56:33.614Z,3.50
2018-04-01T23:59:01.163Z,3.50
